createdAt,value
2018-11-26T00:01:19.862Z,46.57
2018-11-26T00:03:49.638Z,41.57
2018-11-26T00:06:19.853Z,47.00
2018-11-26T00:08:49.350Z,40.27
2018-11-26T00:11:35.744Z,45.00
2018-11-26T00:14:05.205Z,42.07
2018-11-26T00:16:34.788Z,48.87
2018-11-26T00:19:04.645Z,37.43
2018-11-26T00:21:33.743Z,42.57
2018-11-26T00:24:03.724Z,47.73
2018-11-26T00:26:33.314Z,49.97
2018-11-26T00:29:02.455Z,40.77
2018-11-26T00:31:31.589Z,43.20
2018-11-26T00:34:00.737Z,37.13
2018-11-26T00:36:31.279Z,43.20
2018-11-26T00:39:00.426Z,47.37
2018-11-26T00:41:30.374Z,44.67
2018-11-26T00:43:59.624Z,42.97
2018-11-26T00:46:31.173Z,37.57
2018-11-26T00:49:00.324Z,42.47
2018-11-26T00:51:29.551Z,39.93
2018-11-26T00:53:58.665Z,44.77
2018-11-26T00:56:28.268Z,49.20
2018-11-26T00:58:57.430Z,40.67
2018-11-26T01:01:26.771Z,42.20
2018-11-26T01:03:55.931Z,44.13
2018-11-26T01:06:25.760Z,38.73
2018-11-26T01:08:54.980Z,35.57
2018-11-26T01:11:37.272Z,43.20
2018-11-26T01:14:06.654Z,42.97
2018-11-26T01:16:36.810Z,38.10
2018-11-26T01:19:07.339Z,36.23
2018-11-26T01:21:38.683Z,38.93
2018-11-26T01:24:11.364Z,36.83
2018-11-26T01:26:40.779Z,33.03
2018-11-26T01:29:10.843Z,38.07
2018-11-26T01:31:41.488Z,34.97
2018-11-26T01:34:10.541Z,35.63
2018-11-26T01:36:40.013Z,36.90
2018-11-26T01:39:10.273Z,40.77
2018-11-26T01:41:39.474Z,36.83
2018-11-26T01:44:09.196Z,34.93
2018-11-26T01:46:38.629Z,33.13
2018-11-26T01:49:07.733Z,36.60
2018-11-26T01:51:36.838Z,34.50
2018-11-26T01:54:06.559Z,41.00
2018-11-26T01:56:35.855Z,37.73
2018-11-26T01:59:05.003Z,38.57
2018-11-26T02:04:27.545Z,41.87
2018-11-26T02:06:56.773Z,38.37
2018-11-26T02:09:25.953Z,40.47
2018-11-26T02:11:57.452Z,33.77
2018-11-26T02:14:26.634Z,36.87
2018-11-26T02:16:55.854Z,32.23
2018-11-26T02:19:25.375Z,43.10
2018-11-26T02:21:54.787Z,37.37
2018-11-26T02:24:24.017Z,47.77
2018-11-26T02:26:53.235Z,42.07
2018-11-26T02:29:22.487Z,36.23
2018-11-26T02:31:51.818Z,39.47
2018-11-26T02:34:21.016Z,38.23
2018-11-26T02:36:50.327Z,38.37
2018-11-26T02:39:19.521Z,41.07
2018-11-26T02:44:41.894Z,34.33
2018-11-26T02:47:11.270Z,38.30
2018-11-26T02:49:40.405Z,39.87
2018-11-26T02:52:10.144Z,41.00
2018-11-26T02:54:39.413Z,40.67
2018-11-26T02:57:08.668Z,36.73
2018-11-26T02:59:50.025Z,38.83
2018-11-26T03:02:19.828Z,36.17
2018-11-26T03:04:49.093Z,41.27
2018-11-26T03:07:18.365Z,37.43
2018-11-26T03:09:47.424Z,41.90
2018-11-26T03:12:16.873Z,37.50
2018-11-26T03:14:46.010Z,36.73
2018-11-26T03:17:15.235Z,31.60
2018-11-26T03:19:44.431Z,40.40
2018-11-26T03:22:15.274Z,40.63
2018-11-26T03:24:44.564Z,36.73
2018-11-26T03:27:14.850Z,35.80
2018-11-26T03:29:44.075Z,38.17
2018-11-26T03:32:13.308Z,37.63
2018-11-26T03:34:42.292Z,35.97
2018-11-26T03:37:15.701Z,38.50
2018-11-26T03:39:46.018Z,34.33
2018-11-26T03:42:15.185Z,40.23
2018-11-26T03:44:44.530Z,33.90
2018-11-26T03:50:09.049Z,37.40
2018-11-26T03:52:38.339Z,32.03
2018-11-26T03:55:09.858Z,34.73
2018-11-26T03:57:39.034Z,29.20
2018-11-26T04:00:15.221Z,43.10
2018-11-26T04:02:44.131Z,35.97
2018-11-26T04:05:13.321Z,31.97
2018-11-26T04:07:43.422Z,37.30
2018-11-26T04:10:13.840Z,30.87
2018-11-26T04:12:42.957Z,29.90
2018-11-26T04:15:14.184Z,34.70
2018-11-26T04:17:43.497Z,37.40
2018-11-26T04:20:12.397Z,37.37
2018-11-26T04:22:41.349Z,33.47
2018-11-26T04:25:10.641Z,40.20
2018-11-26T04:27:44.517Z,34.07
2018-11-26T04:30:13.518Z,29.07
2018-11-26T04:32:42.427Z,38.37
2018-11-26T04:35:11.368Z,34.87
2018-11-26T04:37:49.607Z,32.83
2018-11-26T04:40:19.634Z,37.83
2018-11-26T04:42:48.700Z,33.53
2018-11-26T04:45:17.792Z,39.73
2018-11-26T04:47:51.329Z,41.97
2018-11-26T04:50:21.033Z,32.87
2018-11-26T04:52:49.901Z,42.07
2018-11-26T04:55:19.365Z,38.27
2018-11-26T04:57:52.606Z,28.23
2018-11-26T05:00:22.834Z,32.40
2018-11-26T05:02:52.130Z,38.80
2018-11-26T05:05:21.023Z,38.93
2018-11-26T05:07:50.685Z,35.10
2018-11-26T05:10:19.916Z,37.43
2018-11-26T05:12:49.057Z,33.30
2018-11-26T05:15:18.058Z,42.60
2018-11-26T05:17:47.360Z,33.20
2018-11-26T05:20:16.248Z,34.77
2018-11-26T05:22:45.121Z,37.63
2018-11-26T05:25:14.240Z,33.50
2018-11-26T05:27:44.708Z,33.70
2018-11-26T05:30:14.456Z,39.93
2018-11-26T05:32:43.650Z,28.23
2018-11-26T05:35:13.382Z,35.50
2018-11-26T05:37:42.829Z,32.73
2018-11-26T05:40:15.208Z,36.97
2018-11-26T05:42:44.330Z,27.67
2018-11-26T05:45:16.295Z,36.60
2018-11-26T05:47:49.869Z,43.40
2018-11-26T05:50:19.552Z,36.93
2018-11-26T05:52:48.843Z,39.27
2018-11-26T05:55:18.213Z,39.73
2018-11-26T05:57:49.706Z,42.13
2018-11-26T06:00:37.505Z,33.13
2018-11-26T06:03:07.069Z,30.87
2018-11-26T06:05:40.486Z,38.30
2018-11-26T06:08:09.325Z,30.90
2018-11-26T06:10:38.234Z,32.63
2018-11-26T06:13:07.518Z,31.23
2018-11-26T06:15:36.998Z,37.93
2018-11-26T06:18:06.490Z,43.00
2018-11-26T06:20:36.712Z,36.27
2018-11-26T06:23:05.984Z,37.00
2018-11-26T06:25:36.079Z,41.53
2018-11-26T06:28:05.001Z,33.77
2018-11-26T06:30:34.164Z,37.77
2018-11-26T06:33:03.432Z,32.03
2018-11-26T06:35:33.214Z,40.77
2018-11-26T06:38:02.312Z,35.97
2018-11-26T06:40:31.278Z,33.03
2018-11-26T06:43:00.135Z,34.83
2018-11-26T06:45:31.285Z,34.73
2018-11-26T06:48:00.469Z,36.87
2018-11-26T06:50:29.702Z,36.80
2018-11-26T06:52:59.626Z,37.50
2018-11-26T06:55:29.350Z,32.93
2018-11-26T06:57:58.617Z,35.20
2018-11-26T07:00:28.219Z,35.77
2018-11-26T07:03:02.641Z,36.57
2018-11-26T07:05:31.729Z,33.60
2018-11-26T07:08:00.761Z,36.80
2018-11-26T07:10:29.921Z,32.80
2018-11-26T07:12:59.941Z,39.23
2018-11-26T07:15:28.893Z,40.70
2018-11-26T07:18:03.534Z,35.77
2018-11-26T07:20:32.673Z,36.70
2018-11-26T07:23:01.866Z,33.57
2018-11-26T07:25:30.967Z,38.40
2018-11-26T07:28:00.135Z,37.70
2018-11-26T07:30:30.300Z,31.37
2018-11-26T07:33:18.234Z,31.00
2018-11-26T07:35:46.113Z,39.53
2018-11-26T07:38:14.989Z,36.53
2018-11-26T07:40:45.273Z,39.30
2018-11-26T07:43:20.043Z,35.63
2018-11-26T07:45:49.204Z,30.73
2018-11-26T07:48:18.407Z,33.27
2018-11-26T07:50:47.316Z,34.03
2018-11-26T07:53:18.044Z,30.90
2018-11-26T07:55:46.935Z,38.77
2018-11-26T07:58:16.643Z,36.17
2018-11-26T08:00:46.353Z,34.77
2018-11-26T08:03:15.787Z,32.10
2018-11-26T08:05:45.019Z,37.93
2018-11-26T08:08:15.105Z,31.87
2018-11-26T08:10:45.451Z,35.53
2018-11-26T08:13:14.646Z,37.97
2018-11-26T08:15:44.984Z,35.07
2018-11-26T08:18:31.834Z,34.67
2018-11-26T08:21:01.018Z,38.60
2018-11-26T08:23:30.203Z,37.40
2018-11-26T08:26:00.891Z,32.90
2018-11-26T08:28:31.010Z,35.57
2018-11-26T08:31:01.160Z,34.57
2018-11-26T08:33:30.976Z,33.83
2018-11-26T08:36:05.682Z,35.33
2018-11-26T08:38:39.893Z,31.90
2018-11-26T08:41:15.956Z,36.60
2018-11-26T08:43:49.696Z,36.27
2018-11-26T08:46:24.832Z,33.30
2018-11-26T08:48:59.237Z,37.70
2018-11-26T08:51:30.021Z,34.47
2018-11-26T08:54:02.520Z,35.30
2018-11-26T08:56:31.722Z,33.50
2018-11-26T08:59:00.938Z,29.17
2018-11-26T09:01:39.568Z,35.43
2018-11-26T09:04:10.719Z,32.93
2018-11-26T09:06:39.669Z,34.63
2018-11-26T09:09:11.106Z,33.40
2018-11-26T09:11:41.249Z,35.30
2018-11-26T09:14:10.201Z,36.97
2018-11-26T09:16:39.491Z,35.50
2018-11-26T09:19:09.244Z,36.43
2018-11-26T09:21:41.377Z,33.73
2018-11-26T09:24:10.494Z,38.10
2018-11-26T09:26:44.139Z,35.17
2018-11-26T09:29:15.447Z,37.20
2018-11-26T09:31:44.361Z,34.73
2018-11-26T09:34:13.516Z,34.57
2018-11-26T09:36:42.635Z,38.00
2018-11-26T09:39:12.418Z,40.90
2018-11-26T09:41:41.654Z,32.37
2018-11-26T09:44:11.059Z,36.10
2018-11-26T09:46:40.121Z,39.07
2018-11-26T09:49:10.371Z,38.20
2018-11-26T09:51:42.235Z,34.47
2018-11-26T09:54:08.494Z,43.83
2018-11-26T09:56:37.288Z,39.20
2018-11-26T09:59:20.374Z,41.13
2018-11-26T10:01:49.797Z,43.63
2018-11-26T10:04:18.800Z,40.40
2018-11-26T10:06:48.081Z,38.77
2018-11-26T10:09:20.233Z,41.13
2018-11-26T10:11:49.334Z,38.23
2018-11-26T10:14:18.388Z,39.67
2018-11-26T10:16:47.497Z,40.87
2018-11-26T10:19:35.419Z,40.00
2018-11-26T10:22:04.743Z,38.80
2018-11-26T10:24:33.863Z,39.47
2018-11-26T10:27:02.952Z,43.93
2018-11-26T10:29:34.364Z,41.60
2018-11-26T10:32:03.552Z,40.73
2018-11-26T10:34:32.691Z,41.23
2018-11-26T10:37:01.956Z,38.00
2018-11-26T10:39:33.190Z,37.50
2018-11-26T10:42:02.340Z,45.70
2018-11-26T10:44:32.067Z,39.60
2018-11-26T10:47:01.308Z,49.10
2018-11-26T10:49:32.007Z,36.97
2018-11-26T10:52:01.563Z,41.33
2018-11-26T10:54:31.667Z,47.50
2018-11-26T10:57:00.797Z,40.93
2018-11-26T10:59:29.975Z,41.17
2018-11-26T11:02:02.369Z,39.87
2018-11-26T11:04:32.254Z,40.17
2018-11-26T11:07:01.483Z,40.77
2018-11-26T11:09:30.446Z,40.30
2018-11-26T11:12:04.248Z,37.80
2018-11-26T11:14:33.735Z,43.30
2018-11-26T11:17:04.266Z,43.77
2018-11-26T11:19:33.382Z,46.80
2018-11-26T11:22:02.277Z,45.57
2018-11-26T11:24:31.960Z,42.47
2018-11-26T11:27:02.489Z,45.93
2018-11-26T11:29:31.745Z,46.27
2018-11-26T11:32:02.111Z,44.47
2018-11-26T11:34:31.190Z,40.40
2018-11-26T11:37:00.223Z,41.13
2018-11-26T11:39:29.409Z,44.03
2018-11-26T11:41:58.593Z,47.27
2018-11-26T11:44:27.528Z,43.47
2018-11-26T11:46:56.408Z,38.07
2018-11-26T11:49:25.383Z,39.97
2018-11-26T11:51:55.044Z,41.87
2018-11-26T11:54:24.977Z,38.90
2018-11-26T11:56:54.285Z,42.93
2018-11-26T11:59:23.446Z,41.60
2018-11-26T12:01:52.645Z,42.03
2018-11-26T12:04:21.834Z,40.40
2018-11-26T12:06:52.097Z,40.60
2018-11-26T12:09:23.585Z,49.80
2018-11-26T12:11:52.774Z,41.13
2018-11-26T12:14:24.138Z,39.50
2018-11-26T12:16:53.000Z,39.93
2018-11-26T12:19:21.891Z,40.23
2018-11-26T12:21:52.154Z,41.43
2018-11-26T12:24:21.456Z,43.73
2018-11-26T12:26:50.719Z,42.37
2018-11-26T12:29:21.619Z,38.10
2018-11-26T12:31:52.509Z,40.50
2018-11-26T12:34:22.017Z,40.13
2018-11-26T12:36:51.611Z,42.27
2018-11-26T12:39:20.760Z,40.63
2018-11-26T12:41:49.919Z,43.10
2018-11-26T12:44:19.185Z,39.47
2018-11-26T12:46:49.854Z,39.50
2018-11-26T12:49:20.839Z,36.10
2018-11-26T12:51:51.545Z,36.47
2018-11-26T12:54:21.759Z,41.60
2018-11-26T12:56:51.221Z,40.30
2018-11-26T12:59:20.377Z,38.30
2018-11-26T13:01:49.325Z,43.53
2018-11-26T13:04:19.675Z,35.17
2018-11-26T13:06:51.191Z,39.63
2018-11-26T13:09:22.363Z,35.40
2018-11-26T13:11:51.825Z,40.37
2018-11-26T13:14:28.645Z,36.10
2018-11-26T13:16:57.842Z,33.67
2018-11-26T13:19:27.000Z,35.70
2018-11-26T13:21:57.117Z,37.20
2018-11-26T13:24:27.763Z,32.97
2018-11-26T13:26:59.161Z,31.23
2018-11-26T13:29:33.190Z,33.10
2018-11-26T13:32:02.176Z,34.90
2018-11-26T13:34:33.600Z,31.83
2018-11-26T13:37:04.396Z,32.60
2018-11-26T13:39:33.779Z,35.10
2018-11-26T13:42:04.051Z,33.17
2018-11-26T13:44:34.339Z,32.67
2018-11-26T13:47:06.723Z,34.73
2018-11-26T13:49:35.876Z,29.50
2018-11-26T13:54:58.141Z,35.93
2018-11-26T13:57:28.658Z,33.83
2018-11-26T13:59:57.651Z,38.97
2018-11-26T14:02:27.303Z,35.73
2018-11-26T14:04:56.721Z,38.50
2018-11-26T14:07:26.124Z,43.67
2018-11-26T14:09:56.576Z,39.63
2018-11-26T14:12:26.690Z,38.60
2018-11-26T14:14:57.082Z,38.63
2018-11-26T14:17:35.035Z,45.97
2018-11-26T14:20:05.018Z,40.97
2018-11-26T14:22:34.257Z,43.33
2018-11-26T14:25:03.723Z,39.07
2018-11-26T14:27:37.540Z,38.53
2018-11-26T14:30:11.517Z,41.57
2018-11-26T14:32:40.860Z,40.67
2018-11-26T14:35:10.381Z,42.90
2018-11-26T14:37:39.612Z,37.97
2018-11-26T14:40:18.955Z,37.80
2018-11-26T14:42:48.466Z,32.23
2018-11-26T14:45:19.742Z,35.40
2018-11-26T14:47:50.349Z,31.07
2018-11-26T14:50:18.395Z,34.93
2018-11-26T14:52:50.778Z,32.07
2018-11-26T14:55:25.686Z,36.40
2018-11-26T14:57:55.102Z,40.10
2018-11-26T15:00:27.715Z,36.43
2018-11-26T15:02:56.818Z,33.70
2018-11-26T15:05:26.728Z,33.37
2018-11-26T15:07:56.295Z,28.10
2018-11-26T15:10:26.675Z,33.53
2018-11-26T15:12:58.040Z,37.37
2018-11-26T15:15:28.671Z,31.93
2018-11-26T15:18:00.468Z,33.57
2018-11-26T15:20:35.309Z,33.20
2018-11-26T15:23:08.296Z,36.57
2018-11-26T15:25:43.558Z,32.73
2018-11-26T15:28:14.028Z,30.80
2018-11-26T15:30:43.196Z,36.57
2018-11-26T15:33:13.613Z,33.83
2018-11-26T15:35:51.165Z,34.33
2018-11-26T15:38:20.475Z,31.07
2018-11-26T15:40:49.582Z,32.77
2018-11-26T15:43:19.108Z,32.03
2018-11-26T15:45:48.204Z,38.60
2018-11-26T15:48:17.401Z,31.20
2018-11-26T15:50:48.263Z,35.33
2018-11-26T15:53:30.525Z,36.00
2018-11-26T15:56:00.311Z,35.73
2018-11-26T15:58:29.618Z,34.20
2018-11-26T16:01:01.718Z,32.07
2018-11-26T16:03:31.820Z,35.70
2018-11-26T16:06:00.822Z,32.17
2018-11-26T16:08:30.131Z,31.13
2018-11-26T16:10:59.103Z,26.90
2018-11-26T16:13:35.317Z,32.77
2018-11-26T16:16:05.027Z,28.13
2018-11-26T16:18:35.024Z,30.30
2018-11-26T16:21:04.966Z,29.53
2018-11-26T16:23:34.679Z,30.33
2018-11-26T16:26:06.523Z,31.40
2018-11-26T16:28:42.610Z,30.53
2018-11-26T16:31:11.758Z,29.63
2018-11-26T16:33:41.782Z,30.77
2018-11-26T16:36:10.879Z,31.10
2018-11-26T16:38:40.125Z,40.07
2018-11-26T16:41:10.936Z,37.00
2018-11-26T16:43:40.031Z,30.07
2018-11-26T16:46:09.035Z,32.03
2018-11-26T16:48:38.302Z,32.77
2018-11-26T16:51:09.982Z,31.87
2018-11-26T16:53:39.060Z,33.33
2018-11-26T16:56:08.357Z,31.30
2018-11-26T16:58:45.183Z,33.73
2018-11-26T17:01:15.404Z,33.80
2018-11-26T17:03:45.825Z,31.57
2018-11-26T17:06:16.117Z,32.93
2018-11-26T17:08:47.659Z,29.43
2018-11-26T17:11:19.215Z,32.67
2018-11-26T17:13:48.694Z,32.53
2018-11-26T17:16:22.324Z,28.83
2018-11-26T17:18:52.667Z,29.47
2018-11-26T17:21:22.800Z,31.27
2018-11-26T17:23:52.562Z,27.47
2018-11-26T17:26:23.325Z,31.17
2018-11-26T17:28:52.926Z,27.67
2018-11-26T17:31:22.748Z,31.30
2018-11-26T17:33:55.066Z,27.50
2018-11-26T17:36:27.821Z,27.17
2018-11-26T17:38:57.971Z,33.73
2018-11-26T17:41:28.075Z,30.87
2018-11-26T17:43:59.424Z,29.30
2018-11-26T17:46:31.876Z,28.50
2018-11-26T17:49:01.040Z,32.40
2018-11-26T17:51:30.521Z,28.70
2018-11-26T17:53:59.696Z,28.93
2018-11-26T17:56:31.773Z,31.67
2018-11-26T17:59:03.119Z,40.40
2018-11-26T18:01:37.898Z,26.13
2018-11-26T18:04:08.444Z,29.87
2018-11-26T18:06:37.517Z,25.40
2018-11-26T18:09:11.626Z,30.87
2018-11-26T18:11:42.250Z,30.67
2018-11-26T18:14:12.267Z,31.90
2018-11-26T18:16:42.906Z,27.03
2018-11-26T18:19:12.348Z,27.20
2018-11-26T18:21:41.987Z,27.83
2018-11-26T18:24:12.286Z,27.97
2018-11-26T18:26:43.691Z,24.60
2018-11-26T18:29:13.069Z,29.80
2018-11-26T18:31:44.313Z,31.40
2018-11-26T18:34:28.524Z,24.23
2018-11-26T18:36:58.779Z,25.77
2018-11-26T18:39:31.314Z,28.47
2018-11-26T18:42:04.968Z,29.03
2018-11-26T18:44:37.809Z,29.10
2018-11-26T18:47:11.218Z,31.97
2018-11-26T18:49:41.210Z,22.73
2018-11-26T18:52:11.428Z,29.90
2018-11-26T18:54:41.176Z,26.63
2018-11-26T18:57:11.413Z,27.83
2018-11-26T18:59:41.973Z,24.47
2018-11-26T19:02:11.506Z,24.47
2018-11-26T19:04:42.999Z,23.60
2018-11-26T19:07:13.794Z,30.60
2018-11-26T19:09:43.623Z,28.23
2018-11-26T19:12:13.274Z,26.57
2018-11-26T19:14:43.487Z,26.43
2018-11-26T19:17:13.499Z,31.30
2018-11-26T19:19:43.308Z,25.23
2018-11-26T19:22:16.151Z,26.80
2018-11-26T19:24:46.723Z,28.30
2018-11-26T19:27:16.416Z,27.73
2018-11-26T19:29:46.672Z,27.70
2018-11-26T19:32:18.830Z,27.07
2018-11-26T19:34:53.914Z,30.40
2018-11-26T19:37:23.258Z,25.70
2018-11-26T19:39:52.364Z,25.30
2018-11-26T19:42:23.524Z,30.83
2018-11-26T19:44:52.576Z,24.97
2018-11-26T19:47:25.403Z,26.53
2018-11-26T19:49:55.200Z,23.80
2018-11-26T19:52:25.681Z,32.40
2018-11-26T19:54:55.179Z,28.13
2018-11-26T19:57:25.210Z,27.23
2018-11-26T19:59:54.313Z,31.37
2018-11-26T20:02:23.721Z,27.27
2018-11-26T20:04:56.124Z,27.13
2018-11-26T20:07:28.345Z,24.87
2018-11-26T20:09:59.775Z,30.00
2018-11-26T20:12:29.908Z,32.17
2018-11-26T20:16:10.178Z,30.57
2018-11-26T20:19:25.829Z,24.13
2018-11-26T20:23:10.513Z,23.03
2018-11-26T20:26:04.918Z,28.27
2018-11-26T20:28:39.483Z,30.10
2018-11-26T20:31:15.541Z,24.73
2018-11-26T20:33:48.954Z,27.70
2018-11-26T20:36:38.079Z,26.50
2018-11-26T20:39:20.108Z,26.73
2018-11-26T20:46:10.434Z,27.90
2018-11-26T20:52:27.288Z,25.33
2018-11-26T20:54:57.865Z,28.30
2018-11-26T20:57:30.807Z,30.23
2018-11-26T21:00:02.801Z,30.97
2018-11-26T21:02:33.728Z,35.97
2018-11-26T21:05:11.459Z,30.20
2018-11-26T21:07:42.189Z,37.20
2018-11-26T21:10:25.404Z,29.63
2018-11-26T21:13:23.899Z,32.17
2018-11-26T21:15:53.385Z,37.07
2018-11-26T21:18:26.327Z,32.53
2018-11-26T21:20:55.879Z,30.60
2018-11-26T21:23:31.883Z,30.27
2018-11-26T21:26:09.324Z,23.77
2018-11-26T21:28:38.907Z,30.17
2018-11-26T21:31:08.398Z,31.47
2018-11-26T21:33:38.147Z,32.80
2018-11-26T21:36:07.896Z,32.43
2018-11-26T21:38:43.225Z,32.50
2018-11-26T21:41:13.459Z,30.73
2018-11-26T21:43:44.719Z,33.93
2018-11-26T21:46:14.534Z,36.47
2018-11-26T21:48:45.747Z,30.60
2018-11-26T21:51:15.798Z,33.63
2018-11-26T21:53:47.893Z,34.50
2018-11-26T21:59:10.709Z,28.43
2018-11-26T22:01:42.436Z,34.43
2018-11-26T22:06:52.405Z,33.73
2018-11-26T22:09:25.206Z,38.03
2018-11-26T22:12:04.257Z,31.73
2018-11-26T22:14:35.056Z,34.70
2018-11-26T22:17:16.968Z,37.63
2018-11-26T22:19:47.951Z,30.77
2018-11-26T22:22:21.537Z,27.33
2018-11-26T22:24:52.433Z,34.33
2018-11-26T22:27:22.364Z,33.33
2018-11-26T22:29:54.344Z,34.73
2018-11-26T22:32:23.951Z,34.67
2018-11-26T22:34:59.343Z,30.00
2018-11-26T22:37:30.990Z,35.20
2018-11-26T22:40:01.094Z,32.37
2018-11-26T22:42:33.833Z,31.53
2018-11-26T22:45:03.892Z,34.77
2018-11-26T22:50:32.451Z,36.27
2018-11-26T22:53:02.730Z,35.10
2018-11-26T22:55:32.755Z,28.33
2018-11-26T22:58:04.608Z,35.13
2018-11-26T23:00:48.346Z,33.73
2018-11-26T23:03:25.102Z,28.60
2018-11-26T23:05:54.889Z,31.00
2018-11-26T23:08:24.945Z,33.27
2018-11-26T23:10:54.762Z,35.80
2018-11-26T23:13:24.545Z,39.40
2018-11-26T23:15:54.351Z,35.40
2018-11-26T23:18:25.380Z,39.90
2018-11-26T23:30:36.192Z,38.83
2018-11-26T23:33:06.793Z,33.53
2018-11-26T23:35:36.342Z,28.57
2018-11-26T23:38:07.383Z,28.80
2018-11-26T23:40:37.367Z,37.63
2018-11-26T23:43:07.556Z,32.03
2018-11-26T23:45:51.332Z,31.07
2018-11-26T23:48:20.962Z,33.50
2018-11-26T23:50:50.446Z,34.67
2018-11-26T23:53:20.231Z,32.27
2018-11-26T23:55:51.143Z,28.10
2018-11-26T23:58:20.756Z,30.30
